Wetterdaten: aktuell Mittwoch, 28.10.2020 04:00
Datum Zeit Temp. A. Feuchte A. Luftdruck Regen Wind Richtung Richtung Taupunkt Windchill Windben
28.10.2020 04:00 4,3 C 86 % 1011,0 hPa 0,0 l/m 18,0 km/h (3 Bft) S 172 2,2 C -3,2 C 32,2 km/h (5 Bft)
28.10.2020 03:55 4,3 C 87 % 1011,0 hPa 0,0 l/m 12,9 km/h (3 Bft) S-SW 196 2,3 C -0,6 C 25,7 km/h (4 Bft)
28.10.2020 03:50 4,3 C 87 % 1011,0 hPa 0,0 l/m 13,8 km/h (3 Bft) S-SW 198 2,3 C -1,1 C 41,8 km/h (6 Bft)
28.10.2020 03:45 4,3 C 87 % 1011,1 hPa 0,0 l/m 14,3 km/h (3 Bft) S-SO 165 2,3 C -1,4 C 33,8 km/h (5 Bft)
28.10.2020 03:40 4,3 C 88 % 1011,3 hPa 0,0 l/m 16,6 km/h (3 Bft) S 175 2,5 C -2,6 C 33,8 km/h (5 Bft)
28.10.2020 03:35 4,2 C 88 % 1011,1 hPa 0,0 l/m 15,1 km/h (3 Bft) SW 225 2,4 C -1,9 C 25,7 km/h (4 Bft)
28.10.2020 03:30 4,1 C 89 % 1011,2 hPa 0,0 l/m 13,8 km/h (3 Bft) SW 227 2,5 C -1,4 C 27,4 km/h (4 Bft)
28.10.2020 03:25 4,0 C 89 % 1011,5 hPa 0,0 l/m 12,8 km/h (3 Bft) S 186 2,4 C -0,9 C 27,4 km/h (4 Bft)
28.10.2020 03:20 3,9 C 89 % 1011,4 hPa 0,0 l/m 12,8 km/h (3 Bft) S 180 2,3 C -1,0 C 27,4 km/h (4 Bft)
28.10.2020 03:15 3,9 C 89 % 1011,5 hPa 0,0 l/m 10,2 km/h (2 Bft) S-SW 192 2,3 C 0,7 C 29,0 km/h (5 Bft)
28.10.2020 03:10 3,9 C 89 % 1011,6 hPa 0,0 l/m 10,5 km/h (2 Bft) S-SW 202 2,3 C 0,5 C 24,1 km/h (4 Bft)
28.10.2020 03:05 3,9 C 89 % 1011,5 hPa 0,0 l/m 8,4 km/h (2 Bft) SW 225 2,3 C 2,1 C 17,7 km/h (3 Bft)
28.10.2020 03:00 3,9 C 89 % 1011,6 hPa 0,0 l/m 9,1 km/h (2 Bft) SO 143 2,3 C 1,5 C 22,5 km/h (4 Bft)
28.10.2020 02:55 3,9 C 89 % 1011,6 hPa 0,0 l/m 7,8 km/h (2 Bft) SO 136 2,3 C 2,6 C 19,3 km/h (3 Bft)
28.10.2020 02:50 4,0 C 89 % 1011,7 hPa 0,0 l/m 6,6 km/h (2 Bft) S-SW 213 2,4 C 3,8 C 20,9 km/h (4 Bft)
28.10.2020 02:45 4,0 C 89 % 1011,6 hPa 0,0 l/m 10,7 km/h (2 Bft) S-SW 192 2,4 C 0,5 C 20,9 km/h (4 Bft)
28.10.2020 02:40 4,1 C 89 % 1011,7 hPa 0,0 l/m 8,3 km/h (2 Bft) SW 215 2,5 C 2,4 C 25,7 km/h (4 Bft)
28.10.2020 02:35 4,1 C 89 % 1011,6 hPa 0,0 l/m 8,8 km/h (2 Bft) S-SW 194 2,5 C 2,0 C 20,9 km/h (4 Bft)
28.10.2020 02:30 4,1 C 89 % 1011,7 hPa 0,0 l/m 12,6 km/h (3 Bft) SO 136 2,5 C -0,7 C 25,7 km/h (4 Bft)
28.10.2020 02:25 4,1 C 90 % 1011,4 hPa 0,0 l/m 12,4 km/h (3 Bft) W-SW 237 2,6 C -0,5 C 37,0 km/h (5 Bft)
28.10.2020 02:20 4,0 C 90 % 1011,4 hPa 0,0 l/m 12,8 km/h (3 Bft) NO 56 2,5 C -0,9 C 27,4 km/h (4 Bft)
28.10.2020 02:15 3,9 C 90 % 1011,6 hPa 0,0 l/m 14,2 km/h (3 Bft) S 173 2,4 C -1,8 C 25,7 km/h (4 Bft)
28.10.2020 02:10 3,9 C 90 % 1011,8 hPa 0,0 l/m 13,0 km/h (3 Bft) S 188 2,4 C -1,1 C 29,0 km/h (5 Bft)
28.10.2020 02:05 3,9 C 91 % 1011,5 hPa 0,0 l/m 11,5 km/h (2 Bft) S 190 2,6 C -0,2 C 33,8 km/h (5 Bft)
28.10.2020 02:00 3,9 C 91 % 1011,6 hPa 0,0 l/m 13,8 km/h (3 Bft) S-SO 165 2,6 C -1,6 C 37,0 km/h (5 Bft)
28.10.2020 01:55 3,8 C 91 % 1011,7 hPa 0,0 l/m 12,1 km/h (2 Bft) S-SO 161 2,5 C -0,7 C 24,1 km/h (4 Bft)
28.10.2020 01:50 3,8 C 91 % 1011,7 hPa 0,0 l/m 8,7 km/h (2 Bft) SW 236 2,5 C 1,8 C 19,3 km/h (3 Bft)
28.10.2020 01:45 3,8 C 91 % 1011,9 hPa 0,0 l/m 7,5 km/h (2 Bft) SW 225 2,5 C 2,8 C 19,3 km/h (3 Bft)
28.10.2020 01:40 3,9 C 91 % 1011,8 hPa 0,0 l/m 7,1 km/h (2 Bft) S-SW 193 2,6 C 3,3 C 22,5 km/h (4 Bft)
28.10.2020 01:35 3,9 C 91 % 1012,0 hPa 0,0 l/m 10,0 km/h (2 Bft) S-SW 202 2,6 C 0,9 C 24,1 km/h (4 Bft)
28.10.2020 01:30 3,9 C 91 % 1012,1 hPa 0,0 l/m 8,9 km/h (2 Bft) W-NW 290 2,6 C 1,7 C 22,5 km/h (4 Bft)
28.10.2020 01:25 4,0 C 92 % 1012,1 hPa 0,0 l/m 10,5 km/h (2 Bft) S 184 2,8 C 0,6 C 25,7 km/h (4 Bft)
28.10.2020 01:20 4,1 C 92 % 1012,2 hPa 0,0 l/m 6,7 km/h (2 Bft) S 179 2,9 C 3,8 C 20,9 km/h (4 Bft)
28.10.2020 01:15 4,1 C 92 % 1012,2 hPa 0,0 l/m 6,9 km/h (2 Bft) SO 145 2,9 C 3,7 C 19,3 km/h (3 Bft)
28.10.2020 01:10 4,1 C 93 % 1012,4 hPa 0,0 l/m 7,4 km/h (2 Bft) S 183 3,1 C 3,2 C 19,3 km/h (3 Bft)
28.10.2020 01:05 4,0 C 93 % 1012,4 hPa 0,0 l/m 6,8 km/h (2 Bft) S 171 3,0 C 3,6 C 16,1 km/h (3 Bft)
28.10.2020 01:00 4,0 C 93 % 1012,5 hPa 0,0 l/m 4,5 km/h (1 Bft) S-SO 150 3,0 C 4,0 C 14,5 km/h (3 Bft)
28.10.2020 00:55 4,0 C 93 % 1012,5 hPa 0,0 l/m 5,7 km/h (1 Bft) S 172 3,0 C 4,0 C 24,1 km/h (4 Bft)
28.10.2020 00:50 4,0 C 93 % 1012,6 hPa 0,0 l/m 5,0 km/h (1 Bft) S-SW 204 3,0 C 4,0 C 19,3 km/h (3 Bft)
28.10.2020 00:45 4,0 C 93 % 1012,3 hPa 0,0 l/m 3,9 km/h (1 Bft) O-SO 118 3,0 C 4,0 C 11,3 km/h (2 Bft)
28.10.2020 00:40 3,9 C 93 % 1012,5 hPa 0,0 l/m 5,4 km/h (1 Bft) O-NO 60 2,9 C 3,9 C 16,1 km/h (3 Bft)
28.10.2020 00:35 3,9 C 93 % 1012,5 hPa 0,0 l/m 2,9 km/h (1 Bft) SW 225 2,9 C 3,9 C 6,4 km/h (2 Bft)
28.10.2020 00:30 3,9 C 93 % 1012,6 hPa 0,0 l/m 2,4 km/h (1 Bft) O 82 2,9 C 3,9 C 9,7 km/h (2 Bft)
28.10.2020 00:25 3,9 C 93 % 1012,7 hPa 0,0 l/m 3,4 km/h (1 Bft) W 279 2,9 C 3,9 C 16,1 km/h (3 Bft)
28.10.2020 00:20 3,9 C 93 % 1012,7 hPa 0,0 l/m 2,4 km/h (1 Bft) N-NO 30 2,9 C 3,9 C 6,4 km/h (2 Bft)
28.10.2020 00:15 3,9 C 93 % 1012,7 hPa 0,0 l/m 2,1 km/h (1 Bft) N-NW 342 2,9 C 3,9 C 4,8 km/h (1 Bft)
28.10.2020 00:10 3,9 C 93 % 1012,7 hPa 0,0 l/m 3,0 km/h (1 Bft) O-SO 115 2,9 C 3,9 C 9,7 km/h (2 Bft)
28.10.2020 00:05 3,9 C 92 % 1012,6 hPa 0,0 l/m 2,6 km/h (1 Bft) O-NO 67 2,7 C 3,9 C 9,7 km/h (2 Bft)
28.10.2020 00:00 3,9 C 93 % 1012,8 hPa 0,0 l/m 3,0 km/h (1 Bft) S-SW 202 2,9 C 3,9 C 8,0 km/h (2 Bft)
27.10.2020 23:55 3,9 C 93 % 1012,7 hPa 0,0 l/m 4,1 km/h (1 Bft) S 188 2,9 C 3,9 C 12,9 km/h (3 Bft)
27.10.2020 23:50 3,9 C 92 % 1012,7 hPa 0,0 l/m 2,5 km/h (1 Bft) S 175 2,7 C 3,9 C 6,4 km/h (2 Bft)
27.10.2020 23:45 3,9 C 92 % 1012,8 hPa 0,0 l/m 2,7 km/h (1 Bft) S-SO 162 2,7 C 3,9 C 8,0 km/h (2 Bft)
27.10.2020 23:40 4,0 C 92 % 1012,8 hPa 0,0 l/m 2,6 km/h (1 Bft) W-NW 288 2,8 C 4,0 C 8,0 km/h (2 Bft)
27.10.2020 23:35 4,0 C 92 % 1012,8 hPa 0,0 l/m 2,1 km/h (1 Bft) S 172 2,8 C 4,0 C 4,8 km/h (1 Bft)
27.10.2020 23:30 4,0 C 92 % 1012,8 hPa 0,0 l/m 2,5 km/h (1 Bft) O 95 2,8 C 4,0 C 8,0 km/h (2 Bft)
27.10.2020 23:25 4,0 C 92 % 1012,8 hPa 0,0 l/m 3,2 km/h (1 Bft) NO 54 2,8 C 4,0 C 12,9 km/h (3 Bft)
27.10.2020 23:20 4,0 C 92 % 1012,8 hPa 0,0 l/m 2,7 km/h (1 Bft) S-SO 160 2,8 C 4,0 C 8,0 km/h (2 Bft)
27.10.2020 23:15 4,1 C 91 % 1012,9 hPa 0,0 l/m 3,1 km/h (1 Bft) S 182 2,8 C 4,1 C 14,5 km/h (3 Bft)
27.10.2020 23:10 4,1 C 92 % 1012,8 hPa 0,0 l/m 3,3 km/h (1 Bft) SW 221 2,9 C 4,1 C 12,9 km/h (3 Bft)
27.10.2020 23:05 4,1 C 91 % 1012,8 hPa 0,0 l/m 4,0 km/h (1 Bft) S-SO 160 2,8 C 4,1 C 11,3 km/h (2 Bft)
27.10.2020 23:00 4,1 C 91 % 1012,8 hPa 0,0 l/m 7,2 km/h (2 Bft) S 185 2,8 C 3,4 C 16,1 km/h (3 Bft)
27.10.2020 22:55 4,1 C 91 % 1012,8 hPa 0,0 l/m 7,4 km/h (2 Bft) S-SW 209 2,8 C 3,2 C 20,9 km/h (4 Bft)
27.10.2020 22:50 4,1 C 91 % 1012,8 hPa 0,0 l/m 9,5 km/h (2 Bft) O-SO 109 2,8 C 1,4 C 24,1 km/h (4 Bft)
27.10.2020 22:45 4,1 C 91 % 1012,7 hPa 0,0 l/m 4,8 km/h (1 Bft) S-SO 161 2,8 C 4,1 C 12,9 km/h (3 Bft)
27.10.2020 22:40 4,1 C 91 % 1012,8 hPa 0,0 l/m 7,8 km/h (2 Bft) W-SW 237 2,8 C 2,8 C 19,3 km/h (3 Bft)
27.10.2020 22:35 4,1 C 91 % 1012,8 hPa 0,0 l/m 6,9 km/h (2 Bft) SW 236 2,8 C 3,7 C 19,3 km/h (3 Bft)
27.10.2020 22:30 4,1 C 91 % 1012,8 hPa 0,0 l/m 6,0 km/h (2 Bft) SO 128 2,8 C 4,1 C 12,9 km/h (3 Bft)
27.10.2020 22:25 4,1 C 91 % 1012,9 hPa 0,0 l/m 4,7 km/h (1 Bft) SO 125 2,8 C 4,1 C 12,9 km/h (3 Bft)
27.10.2020 22:20 4,1 C 91 % 1012,9 hPa 0,0 l/m 4,5 km/h (1 Bft) SO 134 2,8 C 4,1 C 11,3 km/h (2 Bft)
27.10.2020 22:15 4,1 C 91 % 1013,0 hPa 0,0 l/m 6,6 km/h (2 Bft) SO 133 2,8 C 3,9 C 17,7 km/h (3 Bft)
27.10.2020 22:10 4,1 C 91 % 1012,9 hPa 0,0 l/m 7,5 km/h (2 Bft) S-SW 198 2,8 C 3,1 C 14,5 km/h (3 Bft)
27.10.2020 22:05 4,1 C 91 % 1013,0 hPa 0,0 l/m 6,1 km/h (2 Bft) SW 224 2,8 C 4,1 C 17,7 km/h (3 Bft)
27.10.2020 22:00 4,1 C 91 % 1012,9 hPa 0,0 l/m 6,3 km/h (2 Bft) S 182 2,8 C 4,1 C 19,3 km/h (3 Bft)
27.10.2020 21:55 4,1 C 91 % 1012,9 hPa 0,0 l/m 5,1 km/h (1 Bft) SW 229 2,8 C 4,1 C 16,1 km/h (3 Bft)
27.10.2020 21:50 4,1 C 91 % 1012,9 hPa 0,0 l/m 4,9 km/h (1 Bft) S-SW 205 2,8 C 4,1 C 14,5 km/h (3 Bft)
27.10.2020 21:45 4,1 C 91 % 1012,8 hPa 0,0 l/m 5,0 km/h (1 Bft) O-SO 105 2,8 C 4,1 C 12,9 km/h (3 Bft)
27.10.2020 21:40 4,0 C 90 % 1012,8 hPa 0,0 l/m 3,6 km/h (1 Bft) NO 53 2,5 C 4,0 C 11,3 km/h (2 Bft)
27.10.2020 21:35 4,0 C 90 % 1013,0 hPa 0,0 l/m 5,4 km/h (1 Bft) O-SO 115 2,5 C 4,0 C 12,9 km/h (3 Bft)
27.10.2020 21:30 4,0 C 90 % 1012,9 hPa 0,0 l/m 2,3 km/h (1 Bft) S 190 2,5 C 4,0 C 6,4 km/h (2 Bft)
27.10.2020 21:25 4,0 C 90 % 1013,0 hPa 0,0 l/m 3,9 km/h (1 Bft) O-NO 71 2,5 C 4,0 C 11,3 km/h (2 Bft)
27.10.2020 21:20 4,0 C 90 % 1013,1 hPa 0,0 l/m 1,5 km/h (1 Bft) SW 215 2,5 C 4,0 C 4,8 km/h (1 Bft)
27.10.2020 21:15 4,0 C 90 % 1013,1 hPa 0,0 l/m 1,6 km/h (1 Bft) SO 137 2,5 C 4,0 C 4,8 km/h (1 Bft)
27.10.2020 21:10 4,1 C 90 % 1013,2 hPa 0,0 l/m 2,3 km/h (1 Bft) N 5 2,6 C 4,1 C 6,4 km/h (2 Bft)
27.10.2020 21:05 4,1 C 90 % 1013,0 hPa 0,0 l/m 1,3 km/h (1 Bft) S-SO 168 2,6 C 4,1 C 8,0 km/h (2 Bft)
27.10.2020 21:00 4,1 C 90 % 1013,0 hPa 0,0 l/m 2,2 km/h (1 Bft) S-SW 192 2,6 C 4,1 C 8,0 km/h (2 Bft)
27.10.2020 20:55 4,1 C 90 % 1013,2 hPa 0,0 l/m 2,2 km/h (1 Bft) SO 146 2,6 C 4,1 C 6,4 km/h (2 Bft)
27.10.2020 20:50 4,1 C 90 % 1013,0 hPa 0,0 l/m 2,5 km/h (1 Bft) S 189 2,6 C 4,1 C 6,4 km/h (2 Bft)
27.10.2020 20:45 4,2 C 90 % 1013,0 hPa 0,0 l/m 2,1 km/h (1 Bft) S-SO 149 2,7 C 4,2 C 6,4 km/h (2 Bft)
27.10.2020 20:40 4,2 C 90 % 1013,0 hPa 0,0 l/m 4,5 km/h (1 Bft) S 170 2,7 C 4,2 C 14,5 km/h (3 Bft)
27.10.2020 20:35 4,2 C 90 % 1013,0 hPa 0,0 l/m 4,4 km/h (1 Bft) S-SO 157 2,7 C 4,2 C 12,9 km/h (3 Bft)
27.10.2020 20:30 4,2 C 90 % 1013,1 hPa 0,0 l/m 3,7 km/h (1 Bft) S 187 2,7 C 4,2 C 9,7 km/h (2 Bft)
27.10.2020 20:25 4,2 C 90 % 1013,2 hPa 0,0 l/m 3,0 km/h (1 Bft) S-SW 202 2,7 C 4,2 C 8,0 km/h (2 Bft)
27.10.2020 20:20 4,2 C 90 % 1013,2 hPa 0,0 l/m 1,8 km/h (1 Bft) W 275 2,7 C 4,2 C 8,0 km/h (2 Bft)
27.10.2020 20:15 4,2 C 90 % 1013,1 hPa 0,0 l/m 2,8 km/h (1 Bft) S 173 2,7 C 4,2 C 8,0 km/h (2 Bft)
27.10.2020 20:10 4,2 C 90 % 1013,0 hPa 0,0 l/m 3,6 km/h (1 Bft) S 182 2,7 C 4,2 C 12,9 km/h (3 Bft)
27.10.2020 20:05 4,2 C 90 % 1013,0 hPa 0,0 l/m 2,6 km/h (1 Bft) O-SO 113 2,7 C 4,2 C 14,5 km/h (3 Bft)
27.10.2020 20:00 4,2 C 90 % 1013,0 hPa 0,0 l/m 3,0 km/h (1 Bft) O-SO 106 2,7 C 4,2 C 6,4 km/h (2 Bft)
27.10.2020 19:55 4,2 C 89 % 1013,0 hPa 0,0 l/m 3,2 km/h (1 Bft) S-SW 213 2,6 C 4,2 C 8,0 km/h (2 Bft)
27.10.2020 19:50 4,2 C 89 % 1013,0 hPa 0,0 l/m 3,4 km/h (1 Bft) SW 235 2,6 C 4,2 C 9,7 km/h (2 Bft)
27.10.2020 19:45 4,3 C 89 % 1013,0 hPa 0,0 l/m 2,2 km/h (1 Bft) N-NW 327 2,7 C 4,3 C 6,4 km/h (2 Bft)
_ Min-Zeit 01:45 15:30 05:00 - 13:50 - - 04:00 04:00 16:25
Minimum _ 3,8 C 83 % 1009,4 hPa - 0,3 km/h (0 Bft) - - 2,2 C -3,2 C 1,6 km/h (1 Bft)
_ Max-Zeit 12:05 23:55 18:10 05:00 04:00 - - 13:25 12:00 03:50
Maximum _ 5,9 C 93 % 1013,2 hPa 0,0 l/m 18,0 km/h
S (3 Bft)
- - 3,5 C 5,8 C 41,8 km/h
S (6 Bft)
Durchschnitt _ 4,6 C 89 % 1011,7 hPa #0,0 l/m 5,1 km/h (1 Bft) S - 2,9 C 4,0 C 12,6 km/h (3 Bft)